RYR535 LHBP-EDDM
Flight info
| Callsign | RYR535 |
|---|---|
| Flight time | 0h 58m |
| Altitude | 30000 |
| Route | GILEP DCT PESAT DCT BAGSI |
| Aircraft | B738/M-SDFGRWY/C |
Departure
| Time | 2026-05-04 19:35 |
|---|---|
| Airport | Budapest Liszt Ferenc International Airport (LHBP) |
Arrival
| Time | 2026-05-04 20:33 |
|---|---|
| Airport | Munich Airport (EDDM) |
| Time | Latitude | Longitude | Altitude | Speed | Heading |
|---|---|---|---|---|---|
| 2026-05-04 19:03 | 47.43651 | 19.25952 | 475 ft | 0 kts | 313° |
| 2026-05-04 19:25 | 47.43650 | 19.25952 | 475 ft | 0 kts | 313° |
| 2026-05-04 19:25 | 47.43650 | 19.25953 | 475 ft | 1 kts | 313° |
| 2026-05-04 19:25 | 47.43641 | 19.25968 | 475 ft | 2 kts | 313° |
| 2026-05-04 19:26 | 47.43629 | 19.25982 | 475 ft | 2 kts | 341° |
| 2026-05-04 19:26 | 47.43614 | 19.25985 | 475 ft | 2 kts | 8° |
| 2026-05-04 19:26 | 47.43600 | 19.25978 | 475 ft | 1 kts | 37° |
| 2026-05-04 19:26 | 47.43595 | 19.25971 | 475 ft | 1 kts | 46° |
| 2026-05-04 19:27 | 47.43593 | 19.25968 | 475 ft | 0 kts | 43° |
| 2026-05-04 19:30 | 47.43601 | 19.25978 | 475 ft | 3 kts | 43° |
| 2026-05-04 19:30 | 47.43632 | 19.26019 | 475 ft | 7 kts | 39° |
| 2026-05-04 19:30 | 47.43689 | 19.26036 | 475 ft | 9 kts | 327° |
| 2026-05-04 19:30 | 47.43741 | 19.25966 | 477 ft | 10 kts | 332° |
| 2026-05-04 19:31 | 47.43801 | 19.26003 | 478 ft | 10 kts | 42° |
| 2026-05-04 19:31 | 47.43859 | 19.26082 | 479 ft | 12 kts | 42° |
| 2026-05-04 19:31 | 47.43926 | 19.26169 | 478 ft | 13 kts | 42° |
| 2026-05-04 19:31 | 47.43985 | 19.26251 | 478 ft | 3 kts | 42° |
| 2026-05-04 19:32 | 47.43990 | 19.26258 | 478 ft | 0 kts | 42° |
| 2026-05-04 19:33 | 47.44002 | 19.26273 | 478 ft | 6 kts | 42° |
| 2026-05-04 19:33 | 47.44048 | 19.26345 | 479 ft | 13 kts | 56° |
| 2026-05-04 19:33 | 47.44061 | 19.26514 | 479 ft | 19 kts | 111° |
| 2026-05-04 19:34 | 47.43957 | 19.26701 | 474 ft | 28 kts | 133° |
| 2026-05-04 19:34 | 47.43699 | 19.27119 | 464 ft | 91 kts | 132° |
| 2026-05-04 19:34 | 47.43111 | 19.28075 | 434 ft | 156 kts | 132° |
| 2026-05-04 19:34 | 47.42326 | 19.29351 | 841 ft | 171 kts | 132° |
| 2026-05-04 19:35 | 47.41552 | 19.30635 | 1586 ft | 169 kts | 131° |
| 2026-05-04 19:35 | 47.40849 | 19.32040 | 2147 ft | 179 kts | 113° |
| 2026-05-04 19:35 | 47.40499 | 19.33901 | 2452 ft | 199 kts | 108° |
| 2026-05-04 19:35 | 47.39851 | 19.35844 | 2752 ft | 220 kts | 121° |
| 2026-05-04 19:36 | 47.39060 | 19.37859 | 3167 ft | 239 kts | 120° |
| 2026-05-04 19:36 | 47.38179 | 19.39987 | 3921 ft | 246 kts | 130° |
| 2026-05-04 19:36 | 47.36748 | 19.41397 | 4493 ft | 258 kts | 165° |
| 2026-05-04 19:36 | 47.34985 | 19.41725 | 5299 ft | 262 kts | 177° |
| 2026-05-04 19:37 | 47.33173 | 19.41471 | 6078 ft | 267 kts | 200° |
| 2026-05-04 19:37 | 47.31693 | 19.39883 | 6896 ft | 269 kts | 230° |
| 2026-05-04 19:37 | 47.30687 | 19.37589 | 7746 ft | 271 kts | 242° |
| 2026-05-04 19:37 | 47.29871 | 19.35085 | 8559 ft | 275 kts | 244° |
| 2026-05-04 19:38 | 47.29056 | 19.32570 | 9351 ft | 278 kts | 244° |
| 2026-05-04 19:38 | 47.28222 | 19.30003 | 10129 ft | 281 kts | 245° |
| 2026-05-04 19:38 | 47.27373 | 19.27365 | 10653 ft | 294 kts | 245° |
| 2026-05-04 19:38 | 47.26453 | 19.24505 | 10835 ft | 320 kts | 245° |
| 2026-05-04 19:39 | 47.25488 | 19.21508 | 11391 ft | 332 kts | 245° |
| 2026-05-04 19:39 | 47.24492 | 19.18414 | 12128 ft | 339 kts | 245° |
| 2026-05-04 19:39 | 47.23486 | 19.15290 | 12962 ft | 342 kts | 245° |
| 2026-05-04 19:39 | 47.22458 | 19.12104 | 13819 ft | 345 kts | 245° |
| 2026-05-04 19:40 | 47.21478 | 19.08921 | 14662 ft | 347 kts | 250° |
| 2026-05-04 19:40 | 47.20833 | 19.05504 | 15506 ft | 348 kts | 262° |
| 2026-05-04 19:40 | 47.20828 | 19.01954 | 16339 ft | 349 kts | 277° |
| 2026-05-04 19:40 | 47.21390 | 18.98500 | 17168 ft | 351 kts | 287° |
| 2026-05-04 19:41 | 47.22427 | 18.95268 | 17932 ft | 356 kts | 301° |
| 2026-05-04 19:41 | 47.23942 | 18.92362 | 18727 ft | 359 kts | 307° |
| 2026-05-04 19:41 | 47.25503 | 18.89540 | 19394 ft | 363 kts | 306° |
| 2026-05-04 19:41 | 47.27049 | 18.86625 | 20125 ft | 364 kts | 305° |
| 2026-05-04 19:42 | 47.28605 | 18.83681 | 20896 ft | 364 kts | 306° |
| 2026-05-04 19:42 | 47.30152 | 18.80769 | 21598 ft | 365 kts | 306° |
| 2026-05-04 19:42 | 47.31724 | 18.77806 | 22260 ft | 367 kts | 306° |
| 2026-05-04 19:42 | 47.33292 | 18.74848 | 22913 ft | 369 kts | 306° |
| 2026-05-04 19:43 | 47.34877 | 18.71853 | 23547 ft | 370 kts | 306° |
| 2026-05-04 19:43 | 47.36456 | 18.68866 | 24147 ft | 372 kts | 307° |
| 2026-05-04 19:43 | 47.38040 | 18.65868 | 24740 ft | 373 kts | 307° |
| 2026-05-04 19:43 | 47.39611 | 18.62846 | 25298 ft | 375 kts | 305° |
| 2026-05-04 19:44 | 47.40996 | 18.59659 | 26167 ft | 367 kts | 300° |
| 2026-05-04 19:44 | 47.42077 | 18.56301 | 26857 ft | 365 kts | 292° |
| 2026-05-04 19:44 | 47.42841 | 18.52706 | 27509 ft | 363 kts | 289° |
| 2026-05-04 19:44 | 47.43538 | 18.49198 | 28108 ft | 360 kts | 290° |
| 2026-05-04 19:45 | 47.44279 | 18.45671 | 28685 ft | 358 kts | 291° |
| 2026-05-04 19:45 | 47.45011 | 18.42177 | 29206 ft | 357 kts | 291° |
| 2026-05-04 19:45 | 47.45732 | 18.38664 | 29745 ft | 355 kts | 291° |
| 2026-05-04 19:45 | 47.46445 | 18.35176 | 30006 ft | 358 kts | 291° |
| 2026-05-04 19:46 | 47.47085 | 18.32043 | 29991 ft | 360 kts | 291° |
| 2026-05-04 19:46 | 47.48552 | 18.24823 | 29994 ft | 378 kts | 290° |
| 2026-05-04 19:47 | 47.50064 | 18.17181 | 29993 ft | 396 kts | 290° |
| 2026-05-04 19:47 | 47.51631 | 18.09224 | 29993 ft | 414 kts | 290° |
| 2026-05-04 19:48 | 47.53253 | 18.00945 | 29992 ft | 422 kts | 290° |
| 2026-05-04 19:48 | 47.54875 | 17.92622 | 29992 ft | 420 kts | 290° |
| 2026-05-04 19:49 | 47.56480 | 17.84359 | 29993 ft | 419 kts | 290° |
| 2026-05-04 19:49 | 47.58091 | 17.76032 | 29993 ft | 420 kts | 290° |
| 2026-05-04 19:50 | 47.59684 | 17.67765 | 29993 ft | 420 kts | 290° |
| 2026-05-04 19:50 | 47.61280 | 17.59444 | 29993 ft | 419 kts | 290° |
| 2026-05-04 19:51 | 47.62861 | 17.51165 | 29993 ft | 419 kts | 290° |
| 2026-05-04 19:51 | 47.64444 | 17.42842 | 29993 ft | 419 kts | 290° |
| 2026-05-04 19:52 | 47.66012 | 17.34558 | 29993 ft | 420 kts | 289° |
| 2026-05-04 19:52 | 47.67597 | 17.26153 | 29992 ft | 421 kts | 289° |
| 2026-05-04 19:53 | 47.69165 | 17.17794 | 29982 ft | 421 kts | 289° |
| 2026-05-04 19:53 | 47.70721 | 17.09470 | 29972 ft | 420 kts | 289° |
| 2026-05-04 19:54 | 47.72172 | 17.01065 | 29964 ft | 422 kts | 286° |
| 2026-05-04 19:54 | 47.73252 | 16.92593 | 29954 ft | 415 kts | 287° |
| 2026-05-04 19:55 | 47.74374 | 16.84238 | 29945 ft | 408 kts | 288° |
| 2026-05-04 19:55 | 47.75465 | 16.76065 | 29939 ft | 404 kts | 288° |
| 2026-05-04 19:56 | 47.76568 | 16.67812 | 29939 ft | 406 kts | 288° |
| 2026-05-04 19:56 | 47.77656 | 16.59622 | 29939 ft | 406 kts | 288° |
| 2026-05-04 19:57 | 47.78744 | 16.51384 | 29939 ft | 406 kts | 288° |
| 2026-05-04 19:57 | 47.79824 | 16.43171 | 29939 ft | 406 kts | 288° |
| 2026-05-04 19:58 | 47.80906 | 16.34895 | 29939 ft | 406 kts | 288° |
| 2026-05-04 19:58 | 47.81978 | 16.26640 | 29939 ft | 407 kts | 288° |
| 2026-05-04 19:59 | 47.83046 | 16.18378 | 29939 ft | 407 kts | 288° |
| 2026-05-04 19:59 | 47.84109 | 16.10099 | 29939 ft | 407 kts | 288° |
| 2026-05-04 20:00 | 47.85161 | 16.01860 | 29939 ft | 407 kts | 288° |
| 2026-05-04 20:00 | 47.86217 | 15.93532 | 29939 ft | 407 kts | 288° |
| 2026-05-04 20:01 | 47.87258 | 15.85280 | 29939 ft | 407 kts | 288° |
| 2026-05-04 20:01 | 47.88293 | 15.77022 | 29948 ft | 407 kts | 288° |
| 2026-05-04 20:02 | 47.89323 | 15.68755 | 29960 ft | 407 kts | 288° |
| 2026-05-04 20:02 | 47.90353 | 15.60435 | 29969 ft | 407 kts | 288° |
| 2026-05-04 20:03 | 47.91365 | 15.52208 | 29975 ft | 407 kts | 288° |
| 2026-05-04 20:03 | 47.92380 | 15.43908 | 29982 ft | 407 kts | 288° |
| 2026-05-04 20:04 | 47.93389 | 15.35606 | 29992 ft | 407 kts | 288° |
| 2026-05-04 20:04 | 47.94391 | 15.27316 | 29993 ft | 408 kts | 287° |
| 2026-05-04 20:05 | 47.95390 | 15.18985 | 29993 ft | 408 kts | 287° |
| 2026-05-04 20:05 | 47.96385 | 15.10639 | 29992 ft | 408 kts | 287° |
| 2026-05-04 20:06 | 47.97368 | 15.02350 | 29962 ft | 409 kts | 287° |
| 2026-05-04 20:06 | 47.98358 | 14.93930 | 29925 ft | 411 kts | 286° |
| 2026-05-04 20:07 | 47.99336 | 14.85567 | 29889 ft | 412 kts | 285° |
| 2026-05-04 20:07 | 48.00317 | 14.77115 | 29884 ft | 412 kts | 285° |
| 2026-05-04 20:08 | 48.01288 | 14.68697 | 29885 ft | 412 kts | 285° |
| 2026-05-04 20:08 | 48.02252 | 14.60278 | 29884 ft | 412 kts | 285° |
| 2026-05-04 20:09 | 48.03206 | 14.51899 | 29885 ft | 412 kts | 285° |
| 2026-05-04 20:09 | 48.04156 | 14.43492 | 29884 ft | 412 kts | 285° |
| 2026-05-04 20:10 | 48.05103 | 14.35059 | 29884 ft | 411 kts | 285° |
| 2026-05-04 20:10 | 48.05734 | 14.26633 | 29885 ft | 400 kts | 278° |
| 2026-05-04 20:10 | 48.05734 | 14.22558 | 29885 ft | 383 kts | 277° |
| 2026-05-04 20:11 | 48.05745 | 14.18643 | 29884 ft | 365 kts | 278° |
| 2026-05-04 20:11 | 48.05779 | 14.14954 | 29885 ft | 348 kts | 278° |
| 2026-05-04 20:11 | 48.05808 | 14.11392 | 29886 ft | 342 kts | 278° |
| 2026-05-04 20:12 | 48.05852 | 14.04149 | 29885 ft | 353 kts | 278° |
| 2026-05-04 20:12 | 48.05868 | 13.96873 | 29884 ft | 351 kts | 278° |
| 2026-05-04 20:13 | 48.05880 | 13.89570 | 29885 ft | 350 kts | 278° |
| 2026-05-04 20:13 | 48.05886 | 13.82286 | 29885 ft | 351 kts | 278° |
| 2026-05-04 20:13 | 48.05885 | 13.78670 | 29667 ft | 344 kts | 278° |
| 2026-05-04 20:14 | 48.05882 | 13.75130 | 29283 ft | 339 kts | 278° |
| 2026-05-04 20:14 | 48.05880 | 13.71667 | 28869 ft | 334 kts | 278° |
| 2026-05-04 20:14 | 48.05877 | 13.68240 | 28451 ft | 329 kts | 278° |
| 2026-05-04 20:14 | 48.05873 | 13.64860 | 28038 ft | 325 kts | 277° |
| 2026-05-04 20:15 | 48.05868 | 13.61488 | 27627 ft | 320 kts | 277° |
| 2026-05-04 20:15 | 48.05863 | 13.58220 | 27228 ft | 316 kts | 277° |
| 2026-05-04 20:15 | 48.05857 | 13.54962 | 26747 ft | 315 kts | 277° |
| 2026-05-04 20:15 | 48.05941 | 13.51698 | 26243 ft | 311 kts | 281° |
| 2026-05-04 20:16 | 48.06149 | 13.48507 | 25745 ft | 310 kts | 282° |
| 2026-05-04 20:16 | 48.06339 | 13.45288 | 25241 ft | 309 kts | 281° |
| 2026-05-04 20:16 | 48.06506 | 13.42124 | 24745 ft | 308 kts | 280° |
| 2026-05-04 20:16 | 48.06678 | 13.38950 | 24245 ft | 307 kts | 280° |
| 2026-05-04 20:17 | 48.06850 | 13.35776 | 23744 ft | 306 kts | 280° |
| 2026-05-04 20:17 | 48.07021 | 13.32575 | 23238 ft | 306 kts | 279° |
| 2026-05-04 20:17 | 48.07188 | 13.29424 | 22741 ft | 308 kts | 279° |
| 2026-05-04 20:17 | 48.07361 | 13.26197 | 22247 ft | 317 kts | 278° |
| 2026-05-04 20:18 | 48.07532 | 13.22925 | 21747 ft | 318 kts | 278° |
| 2026-05-04 20:18 | 48.07701 | 13.19651 | 21247 ft | 317 kts | 278° |
| 2026-05-04 20:18 | 48.07867 | 13.16418 | 20736 ft | 308 kts | 277° |
| 2026-05-04 20:18 | 48.08027 | 13.13285 | 20232 ft | 297 kts | 276° |
| 2026-05-04 20:19 | 48.08187 | 13.10186 | 19734 ft | 297 kts | 275° |
| 2026-05-04 20:19 | 48.08344 | 13.07123 | 19236 ft | 297 kts | 275° |
| 2026-05-04 20:19 | 48.08499 | 13.04060 | 18739 ft | 298 kts | 274° |
| 2026-05-04 20:19 | 48.08654 | 13.00974 | 18238 ft | 299 kts | 273° |
| 2026-05-04 20:20 | 48.08808 | 12.97892 | 17739 ft | 299 kts | 272° |
| 2026-05-04 20:20 | 48.08962 | 12.94804 | 17241 ft | 300 kts | 271° |
| 2026-05-04 20:20 | 48.09117 | 12.91703 | 16742 ft | 301 kts | 272° |
| 2026-05-04 20:20 | 48.09369 | 12.88560 | 16237 ft | 303 kts | 275° |
| 2026-05-04 20:21 | 48.09690 | 12.85472 | 15741 ft | 304 kts | 275° |
| 2026-05-04 20:21 | 48.09992 | 12.82337 | 15239 ft | 305 kts | 275° |
| 2026-05-04 20:21 | 48.10585 | 12.76050 | 14238 ft | 306 kts | 275° |
| 2026-05-04 20:22 | 48.10882 | 12.72899 | 13738 ft | 307 kts | 275° |
| 2026-05-04 20:22 | 48.11176 | 12.69769 | 13242 ft | 308 kts | 275° |
| 2026-05-04 20:22 | 48.11473 | 12.66591 | 12741 ft | 309 kts | 275° |
| 2026-05-04 20:22 | 48.11771 | 12.63389 | 12237 ft | 309 kts | 275° |
| 2026-05-04 20:23 | 48.12066 | 12.60217 | 11739 ft | 310 kts | 275° |
| 2026-05-04 20:23 | 48.12364 | 12.56997 | 11236 ft | 311 kts | 276° |
| 2026-05-04 20:23 | 48.12659 | 12.53803 | 10737 ft | 311 kts | 276° |
| 2026-05-04 20:23 | 48.12952 | 12.50619 | 10240 ft | 312 kts | 276° |
| 2026-05-04 20:24 | 48.13245 | 12.47424 | 9741 ft | 312 kts | 277° |
| 2026-05-04 20:24 | 48.13541 | 12.44194 | 9238 ft | 312 kts | 277° |
| 2026-05-04 20:24 | 48.13833 | 12.40993 | 8739 ft | 312 kts | 277° |
| 2026-05-04 20:24 | 48.14123 | 12.37797 | 8241 ft | 312 kts | 278° |
| 2026-05-04 20:25 | 48.14562 | 12.34659 | 7737 ft | 313 kts | 290° |
| 2026-05-04 20:25 | 48.15721 | 12.31879 | 7230 ft | 314 kts | 311° |
| 2026-05-04 20:25 | 48.17407 | 12.29863 | 6729 ft | 309 kts | 325° |
| 2026-05-04 20:25 | 48.19189 | 12.28189 | 6227 ft | 296 kts | 326° |
| 2026-05-04 20:26 | 48.20874 | 12.26562 | 5843 ft | 281 kts | 325° |
| 2026-05-04 20:26 | 48.22482 | 12.25013 | 5490 ft | 267 kts | 326° |
| 2026-05-04 20:26 | 48.24032 | 12.23525 | 5148 ft | 266 kts | 326° |
| 2026-05-04 20:26 | 48.25574 | 12.22046 | 4882 ft | 261 kts | 326° |
| 2026-05-04 20:27 | 48.27072 | 12.20610 | 4891 ft | 249 kts | 326° |
| 2026-05-04 20:27 | 48.28517 | 12.19224 | 4894 ft | 252 kts | 326° |
| 2026-05-04 20:27 | 48.30006 | 12.17796 | 4894 ft | 248 kts | 326° |
| 2026-05-04 20:27 | 48.31415 | 12.16445 | 4892 ft | 239 kts | 326° |
| 2026-05-04 20:28 | 48.32805 | 12.15110 | 4892 ft | 231 kts | 326° |
| 2026-05-04 20:28 | 48.34126 | 12.13840 | 4892 ft | 223 kts | 326° |
| 2026-05-04 20:28 | 48.35427 | 12.12589 | 4894 ft | 221 kts | 326° |
| 2026-05-04 20:28 | 48.36726 | 12.11339 | 4894 ft | 221 kts | 326° |
| 2026-05-04 20:29 | 48.37962 | 12.10014 | 4890 ft | 220 kts | 313° |
| 2026-05-04 20:29 | 48.38713 | 12.08040 | 4842 ft | 223 kts | 283° |
| 2026-05-04 20:29 | 48.38652 | 12.05720 | 4575 ft | 223 kts | 253° |
| 2026-05-04 20:29 | 48.38150 | 12.03570 | 4306 ft | 211 kts | 259° |
| 2026-05-04 20:30 | 48.38137 | 12.01461 | 4019 ft | 195 kts | 276° |
| 2026-05-04 20:30 | 48.38036 | 11.99521 | 3759 ft | 182 kts | 257° |
| 2026-05-04 20:30 | 48.37846 | 11.97700 | 3518 ft | 168 kts | 267° |
| 2026-05-04 20:30 | 48.37727 | 11.95998 | 3367 ft | 162 kts | 265° |
| 2026-05-04 20:31 | 48.37602 | 11.94284 | 3150 ft | 167 kts | 265° |
| 2026-05-04 20:31 | 48.37472 | 11.92568 | 2835 ft | 165 kts | 265° |
| 2026-05-04 20:31 | 48.37345 | 11.90868 | 2611 ft | 161 kts | 265° |
| 2026-05-04 20:31 | 48.37225 | 11.89269 | 2400 ft | 147 kts | 265° |
| 2026-05-04 20:32 | 48.37109 | 11.87735 | 2214 ft | 147 kts | 265° |
| 2026-05-04 20:32 | 48.36995 | 11.86224 | 2021 ft | 146 kts | 265° |
| 2026-05-04 20:32 | 48.36880 | 11.84705 | 1858 ft | 147 kts | 264° |
| 2026-05-04 20:32 | 48.36760 | 11.83170 | 1628 ft | 143 kts | 264° |
| 2026-05-04 20:33 | 48.36650 | 11.81738 | 1461 ft | 140 kts | 264° |
| 2026-05-04 20:33 | 48.36553 | 11.80363 | 1450 ft | 107 kts | 263° |
| 2026-05-04 20:33 | 48.36492 | 11.79548 | 1453 ft | 50 kts | 264° |
| 2026-05-04 20:33 | 48.36463 | 11.79200 | 1457 ft | 24 kts | 258° |
| 2026-05-04 20:34 | 48.36424 | 11.78987 | 1459 ft | 18 kts | 246° |
| 2026-05-04 20:34 | 48.36360 | 11.78829 | 1459 ft | 16 kts | 236° |